createdAt,value
2023-02-04T00:02:40.003Z,101653.34
2023-02-04T00:07:41.633Z,101661.00
2023-02-04T00:12:42.958Z,101648.28
2023-02-04T00:17:44.276Z,101655.31
2023-02-04T00:22:45.754Z,101648.81
2023-02-04T00:27:47.136Z,101662.09
2023-02-04T00:32:48.547Z,101673.84
2023-02-04T00:37:50.626Z,101673.09
2023-02-04T00:42:52.340Z,101675.38
2023-02-04T00:47:53.696Z,101679.75
2023-02-04T00:52:55.052Z,101677.63
2023-02-04T00:57:56.381Z,101688.22
2023-02-04T01:02:57.706Z,101680.63
2023-02-04T01:07:59.055Z,101693.47
2023-02-04T01:13:00.802Z,101701.28
2023-02-04T01:18:02.541Z,101707.75
2023-02-04T01:23:03.853Z,101713.53
2023-02-04T01:28:05.193Z,101719.94
2023-02-04T01:33:06.556Z,101728.28
2023-02-04T01:38:07.903Z,101728.69
2023-02-04T01:43:10.980Z,101738.56
2023-02-04T01:48:14.081Z,101746.25
2023-02-04T01:53:20.447Z,101748.78
2023-02-04T01:58:21.774Z,101753.59
2023-02-04T02:03:23.253Z,101765.63
2023-02-04T02:08:24.621Z,101770.34
2023-02-04T02:13:25.957Z,101770.19
2023-02-04T02:18:27.353Z,101780.06
2023-02-04T02:23:48.014Z,101772.97
2023-02-04T02:28:50.513Z,101781.91
2023-02-04T02:33:52.020Z,101781.16
2023-02-04T02:38:53.557Z,101786.06
2023-02-04T02:43:54.920Z,101792.22
2023-02-04T02:48:56.374Z,101791.69
2023-02-04T02:53:58.199Z,101804.09
2023-02-04T02:59:13.174Z,101799.78
2023-02-04T03:04:16.986Z,101800.56
2023-02-04T03:09:19.004Z,101806.50
2023-02-04T03:14:22.310Z,101812.66
2023-02-04T03:19:25.934Z,101811.63
2023-02-04T03:24:27.282Z,101821.13
2023-02-04T03:29:29.849Z,101836.69
2023-02-04T03:34:31.308Z,101834.34
2023-02-04T03:39:32.640Z,101860.41
2023-02-04T03:44:34.015Z,101862.38
2023-02-04T03:49:36.071Z,101864.53
2023-02-04T03:54:37.418Z,101864.84
2023-02-04T03:59:39.042Z,101863.66
2023-02-04T04:04:40.429Z,101870.47
2023-02-04T04:09:41.779Z,101887.50
2023-02-04T04:14:43.093Z,101889.22
2023-02-04T04:19:46.497Z,101882.00
2023-02-04T04:24:47.863Z,101885.75
2023-02-04T04:29:49.167Z,101891.91
2023-02-04T04:34:50.537Z,101885.38
2023-02-04T04:39:51.877Z,101896.84
2023-02-04T04:44:53.189Z,101881.28
2023-02-04T04:49:54.516Z,101884.28
2023-02-04T04:54:55.869Z,101887.59
2023-02-04T04:59:57.338Z,101897.59
2023-02-04T05:04:58.706Z,101904.50
2023-02-04T05:10:00.169Z,101916.94
2023-02-04T05:15:01.586Z,101923.16
2023-02-04T05:20:03.897Z,101924.59
2023-02-04T05:25:05.578Z,101917.41
2023-02-04T05:30:07.362Z,101911.41
2023-02-04T05:35:08.752Z,101926.50
2023-02-04T05:40:10.533Z,101940.69
2023-02-04T05:45:15.837Z,101942.03
2023-02-04T05:50:17.303Z,101942.03
2023-02-04T05:55:18.642Z,101945.81
2023-02-04T06:00:20.353Z,101956.63
2023-02-04T06:05:23.022Z,101962.66
2023-02-04T06:10:24.366Z,101968.00
2023-02-04T06:15:25.715Z,101980.84
2023-02-04T06:20:27.112Z,101979.38
2023-02-04T06:25:28.474Z,101978.22
2023-02-04T06:30:30.042Z,101982.75
2023-02-04T06:35:31.665Z,101986.66
2023-02-04T06:40:33.273Z,101999.81
2023-02-04T06:45:35.816Z,102005.47
2023-02-04T06:50:37.199Z,101996.19
2023-02-04T06:55:38.905Z,102001.66
2023-02-04T07:00:40.237Z,101997.03
2023-02-04T07:05:41.562Z,102001.44
2023-02-04T07:10:42.873Z,102018.38
2023-02-04T07:15:44.233Z,102024.97
2023-02-04T07:20:46.066Z,102042.38
2023-02-04T07:25:47.393Z,102048.94
2023-02-04T07:30:48.872Z,102068.59
2023-02-04T07:35:50.297Z,102065.41
2023-02-04T07:40:51.687Z,102075.41
2023-02-04T07:45:53.433Z,102078.84
2023-02-04T07:50:54.756Z,102081.28
2023-02-04T07:55:56.106Z,102087.50
2023-02-04T08:00:57.437Z,102110.19
2023-02-04T08:05:58.751Z,102103.97
2023-02-04T08:11:00.348Z,102105.91
2023-02-04T08:16:01.840Z,102115.78
2023-02-04T08:21:04.821Z,102124.53
2023-02-04T08:26:06.360Z,102133.56
2023-02-04T08:31:11.797Z,102129.03
2023-02-04T08:36:13.242Z,102129.47
2023-02-04T08:41:14.584Z,102146.94
2023-02-04T08:46:16.060Z,102155.47
2023-02-04T08:51:17.498Z,102159.34
2023-02-04T08:56:20.419Z,102161.28
2023-02-04T09:01:21.918Z,102162.91
2023-02-04T09:06:23.326Z,102164.19
2023-02-04T09:11:24.686Z,102180.38
2023-02-04T09:16:26.045Z,102189.19
2023-02-04T09:21:27.686Z,102181.66
2023-02-04T09:26:29.036Z,102188.13
2023-02-04T09:31:30.658Z,102190.53
2023-02-04T09:36:37.693Z,102192.50
2023-02-04T09:41:40.532Z,102204.16
2023-02-04T09:46:46.904Z,102205.38
2023-02-04T09:51:49.801Z,102228.00
2023-02-04T09:56:52.447Z,102240.94
2023-02-04T10:02:02.673Z,102256.50
2023-02-04T10:07:11.928Z,102259.78
2023-02-04T10:12:13.358Z,102269.66
2023-02-04T10:17:20.292Z,102273.63
2023-02-04T10:22:22.365Z,102261.47
2023-02-04T10:27:23.701Z,102266.03
2023-02-04T10:32:31.457Z,102254.47
2023-02-04T10:37:32.964Z,102259.59
2023-02-04T10:42:34.351Z,102262.06
2023-02-04T10:47:35.895Z,102272.19
2023-02-04T10:52:41.086Z,102268.38
2023-02-04T10:57:45.614Z,102268.75
2023-02-04T11:03:03.618Z,102270.75
2023-02-04T11:08:25.307Z,102268.66
2023-02-04T11:13:39.285Z,102268.38
2023-02-04T11:18:48.815Z,102269.66
2023-02-04T11:23:50.532Z,102277.19
2023-02-04T11:29:00.762Z,102259.88
2023-02-04T11:34:11.373Z,102262.88
2023-02-04T11:39:16.925Z,102267.66
2023-02-04T11:44:19.049Z,102272.53
2023-02-04T11:49:21.099Z,102278.91
2023-02-04T11:54:23.510Z,102278.34
2023-02-04T11:59:24.930Z,102271.28
2023-02-04T12:04:26.312Z,102283.91
2023-02-04T12:09:30.099Z,102280.38
2023-02-04T12:14:41.696Z,102281.22
2023-02-04T12:19:43.140Z,102275.81
2023-02-04T12:24:44.973Z,102277.25
2023-02-04T12:29:46.473Z,102281.09
2023-02-04T12:34:47.797Z,102280.06
2023-02-04T12:39:49.130Z,102276.03
2023-02-04T12:44:50.453Z,102280.34
2023-02-04T12:49:51.787Z,102289.25
2023-02-04T12:54:53.171Z,102286.38
2023-02-04T12:59:57.694Z,102290.22
2023-02-04T13:04:58.992Z,102301.00
2023-02-04T13:10:00.940Z,102286.53
2023-02-04T13:15:03.133Z,102281.28
2023-02-04T13:20:05.688Z,102276.88
2023-02-04T13:25:07.352Z,102282.00
2023-02-04T13:30:10.847Z,102283.41
2023-02-04T13:35:12.191Z,102276.00
2023-02-04T13:40:13.690Z,102276.16
2023-02-04T13:45:16.186Z,102274.50
2023-02-04T13:50:17.773Z,102266.53
2023-02-04T13:55:19.114Z,102272.47
2023-02-04T14:00:20.615Z,102272.63
2023-02-04T14:05:22.033Z,102285.63
2023-02-04T14:10:24.914Z,102285.47
2023-02-04T14:15:26.318Z,102290.03
2023-02-04T14:20:27.643Z,102285.19
2023-02-04T14:25:29.007Z,102287.47
2023-02-04T14:30:31.773Z,102297.38
2023-02-04T14:35:33.454Z,102286.44
2023-02-04T14:40:35.072Z,102281.22
2023-02-04T14:45:37.827Z,102289.81
2023-02-04T14:50:39.186Z,102292.09
2023-02-04T14:55:40.528Z,102296.91
2023-02-04T15:00:41.854Z,102297.47
2023-02-04T15:05:43.231Z,102299.03
2023-02-04T15:10:44.636Z,102295.34
2023-02-04T15:15:46.133Z,102304.72
2023-02-04T15:20:47.855Z,102302.41
2023-02-04T15:25:51.472Z,102302.13
2023-02-04T15:30:53.374Z,102301.31
2023-02-04T15:35:54.753Z,102308.41
2023-02-04T15:40:56.081Z,102313.53
2023-02-04T15:45:57.943Z,102313.63
2023-02-04T15:50:59.322Z,102319.19
2023-02-04T15:56:01.083Z,102333.41
2023-02-04T16:01:02.505Z,102343.22
2023-02-04T16:06:05.114Z,102340.31
2023-02-04T16:11:06.463Z,102348.31
2023-02-04T16:16:08.188Z,102350.66
2023-02-04T16:21:09.566Z,102349.97
2023-02-04T16:26:11.016Z,102352.44
2023-02-04T16:31:12.794Z,102364.22
2023-02-04T16:36:14.253Z,102370.91
2023-02-04T16:41:15.615Z,102373.63
2023-02-04T16:46:17.887Z,102371.66
2023-02-04T16:51:20.344Z,102374.09
2023-02-04T16:56:21.763Z,102390.31
2023-02-04T17:01:23.147Z,102381.53
2023-02-04T17:06:26.762Z,102386.50
2023-02-04T17:11:31.511Z,102388.19
2023-02-04T17:16:33.184Z,102399.28
2023-02-04T17:21:35.044Z,102395.00
2023-02-04T17:26:39.306Z,102393.66
2023-02-04T17:31:43.107Z,102395.69
2023-02-04T17:36:44.478Z,102404.72
2023-02-04T17:41:45.875Z,102404.72
2023-02-04T17:46:47.244Z,102412.75
2023-02-04T17:51:48.638Z,102414.94
2023-02-04T17:56:50.170Z,102417.84
2023-02-04T18:01:51.643Z,102428.69
2023-02-04T18:06:53.259Z,102424.66
2023-02-04T18:11:54.579Z,102419.53
2023-02-04T18:16:58.560Z,102427.56
2023-02-04T18:21:59.956Z,102431.09
2023-02-04T18:27:11.441Z,102426.72
2023-02-04T18:32:20.862Z,102435.72
2023-02-04T18:37:35.514Z,102432.66
2023-02-04T18:42:43.086Z,102435.94
2023-02-04T18:47:45.730Z,102436.56
2023-02-04T18:52:47.040Z,102426.59
2023-02-04T18:57:48.410Z,102425.63
2023-02-04T19:02:56.241Z,102429.06
2023-02-04T19:08:43.788Z,102425.75
2023-02-04T19:13:45.239Z,102424.59
2023-02-04T19:18:47.223Z,102431.06
2023-02-04T19:23:50.168Z,102428.78
2023-02-04T19:28:52.278Z,102432.13
2023-02-04T19:33:55.280Z,102435.31
2023-02-04T19:39:00.563Z,102418.34
2023-02-04T19:44:14.178Z,102431.91
2023-02-04T19:49:25.772Z,102439.81
2023-02-04T19:54:39.483Z,102445.06
2023-02-04T19:59:41.037Z,102452.91
2023-02-04T20:04:45.485Z,102454.09
2023-02-04T20:09:46.970Z,102453.34
2023-02-04T20:14:49.927Z,102445.41
2023-02-04T20:19:51.477Z,102452.72
2023-02-04T20:25:18.852Z,102457.84
2023-02-04T20:30:25.417Z,102472.88
2023-02-04T20:35:31.827Z,102477.34
2023-02-04T20:40:36.199Z,102477.59
2023-02-04T20:45:44.350Z,102467.31
2023-02-04T20:50:51.915Z,102475.00
2023-02-04T20:56:03.613Z,102475.00
2023-02-04T21:01:27.664Z,102473.53
2023-02-04T21:06:31.890Z,102472.78
2023-02-04T21:11:33.370Z,102473.72
2023-02-04T21:16:34.828Z,102473.97
2023-02-04T21:21:36.290Z,102475.38
2023-02-04T21:26:37.723Z,102484.50
2023-02-04T21:31:39.489Z,102481.16
2023-02-04T21:36:41.004Z,102482.31
2023-02-04T21:41:42.350Z,102482.00
2023-02-04T21:46:43.699Z,102485.03
2023-02-04T21:51:45.046Z,102475.25
2023-02-04T21:56:46.348Z,102480.72
2023-02-04T22:01:47.701Z,102476.34
2023-02-04T22:06:49.059Z,102479.97
2023-02-04T22:11:50.394Z,102488.00
2023-02-04T22:16:51.732Z,102483.41
2023-02-04T22:21:53.031Z,102478.28
2023-02-04T22:26:54.356Z,102477.53
2023-02-04T22:31:56.217Z,102468.09
2023-02-04T22:36:57.720Z,102474.41
2023-02-04T22:41:59.042Z,102470.22
2023-02-04T22:47:00.388Z,102469.72
2023-02-04T22:52:03.090Z,102465.84
2023-02-04T22:57:04.457Z,102472.69
2023-02-04T23:02:05.834Z,102470.53
2023-02-04T23:07:08.355Z,102469.47
2023-02-04T23:12:12.787Z,102464.28
2023-02-04T23:17:15.833Z,102469.34
2023-02-04T23:22:17.283Z,102477.44
2023-02-04T23:27:18.772Z,102474.84
2023-02-04T23:32:20.129Z,102493.91
2023-02-04T23:37:21.553Z,102486.97
2023-02-04T23:42:22.903Z,102477.69
2023-02-04T23:47:25.281Z,102469.66
2023-02-04T23:52:26.628Z,102465.56
2023-02-04T23:57:27.954Z,102474.97
